logo
Rechercher aéroport 
image banner adimage banner adimage banner ad
image banner ad

EYMO - Moletai

Situé à Moletai, Lithuania

ICAO - EYMO, IATA -

Données fournies par Airmate  

Information générale

Coordonnées: N55°6'46" E25°20'11"
Élévation : 653 feet MSL.
Variation magnétique : 7° East
Voir autres Aéroports à Utena County

Données opérationnelles

Special qualification required
Heure actuelle UTC:
Heure actuelle locale:
Météo à : EYVI - Vilnius/International ( 53 km )
METAR: EYVI 242050Z 33004KT 9999 SCT013 BKN023 18/17 Q1018 TEMPO BKN010
TAF: TAF EYVI 241700Z 2418/2518 VRB05KT 5000 BR SCT005 SCT040 TEMPO 2418/2420 VRB15KT SHRA BKN035CB TEMPO 2420/2504 0500 FG VV002 BECMG 2504/2506 9000 NSW NSC TEMPO 2508/2516 SCT045TCU
Voir NOTAMs / SUP AIP / TFR affectant cet aéroport [VIEW]
Fréquences de communication: [VIEW]

Pistes:

Identifiant RWYQFULongueur (ft)Largeur (ft)SurfaceLDA (ft)
0669°147666CONC+ASPH
24249°147666CONC+ASPH

Coordonnées de l'aéroport

Adresse: Moletai Lithuania

Vue satellite de EYMO